Time;durP1;ratioP1;P1;durP2;ratioP2;P2;SDS_P1;SDS_P2;PMS_P1;PMS_P2;Temp;Humidity;BMP_temperature;BMP_pressure;BME280_temperature;BME280_humidity;BME280_pressure;Samples;Min_cycle;Max_cycle;Signal;HPM_P1;HPM_P2
2024/04/05 06:08:06;;;;;;;10.23;2.60;;;11.70;99.90;;;;;;5058228;28;20212;-85
2024/04/05 06:55:40;;;;;;;16.27;3.10;;;11.90;99.90;;;;;;4841775;29;20228;-84
2024/04/05 08:42:21;;;;;;;11.70;3.27;;;14.10;99.90;;;;;;5093147;28;20203;-85
2024/04/05 08:54:19;;;;;;;10.40;3.50;;;14.40;99.90;;;;;;5102640;28;20690;-84
2024/04/05 08:56:55;;;;;;;8.57;3.00;;;14.40;99.90;;;;;;5096187;28;20205;-83
2024/04/05 08:59:29;;;;;;;6.23;2.73;;;14.50;99.90;;;;;;5092415;28;20196;-84
2024/04/05 09:02:08;;;;;;;10.57;3.27;;;14.70;99.90;;;;;;5090732;28;20203;-83
2024/04/05 09:04:41;;;;;;;8.10;3.20;;;14.70;99.90;;;;;;5087697;28;20200;-84
2024/04/05 09:07:20;;;;;;;8.73;3.23;;;14.80;99.90;;;;;;5106800;28;20492;-84
2024/04/05 09:09:53;;;;;;;8.90;3.20;;;14.90;99.90;;;;;;5104072;28;20656;-84
2024/04/05 09:12:27;;;;;;;10.17;3.63;;;14.90;99.90;;;;;;5101642;28;20207;-84
2024/04/05 09:15:23;;;;;;;8.60;3.57;;;15.00;99.90;;;;;;5100021;28;20577;-83
2024/04/05 09:18:03;;;;;;;6.10;2.90;;;15.10;99.90;;;;;;5097383;28;20220;-83
2024/04/05 09:20:46;;;;;;;9.13;3.00;;;15.20;99.90;;;;;;5096287;28;20548;-84
2024/04/05 09:23:21;;;;;;;9.10;3.50;;;15.20;99.90;;;;;;5095704;28;20192;-84
2024/04/05 09:26:00;;;;;;;11.67;3.57;;;15.20;99.90;;;;;;5107269;28;20203;-84
2024/04/05 09:28:29;;;;;;;8.20;3.50;;;15.30;99.90;;;;;;5094491;28;20217;-84
2024/04/05 09:31:03;;;;;;;9.27;3.20;;;15.20;99.90;;;;;;5090283;28;20196;-84
2024/04/05 09:33:29;;;;;;;12.90;3.17;;;15.30;99.90;;;;;;5104364;28;20204;-84
2024/04/05 09:36:24;;;;;;;7.03;2.90;;;15.30;99.90;;;;;;5096705;28;20239;-84
2024/04/05 09:39:00;;;;;;;8.63;3.67;;;15.40;99.90;;;;;;5100450;28;20226;-84
2024/04/05 09:41:50;;;;;;;11.00;3.37;;;15.40;99.90;;;;;;5099312;28;20633;-83
2024/04/05 09:44:27;;;;;;;9.67;3.53;;;15.40;99.90;;;;;;5097593;28;20196;-83
2024/04/05 09:47:29;;;;;;;6.30;2.87;;;15.40;99.90;;;;;;5093508;28;20228;-84
2024/04/05 09:53:28;;;;;;;9.50;3.20;;;15.40;99.90;;;;;;5039109;28;20220;-84
2024/04/05 09:56:35;;;;;;;12.07;2.93;;;15.40;99.90;;;;;;5073201;28;20761;-84
2024/04/05 10:05:34;;;;;;;8.30;2.73;;;15.50;99.90;;;;;;5100983;28;20196;-83
2024/04/05 10:12:17;;;;;;;5.60;2.33;;;15.40;99.90;;;;;;5085358;28;20207;-83
2024/04/05 10:19:55;;;;;;;;;;;;;;;;;;;;;
2024/04/05 10:23:35;;;;;;;3.30;1.90;;;15.20;99.90;;;;;;4923021;28;20242;-83
2024/04/05 10:26:51;;;;;;;8.90;2.93;;;15.20;99.90;;;;;;5005576;28;20645;-83
2024/04/05 10:47:12;;;;;;;8.70;2.80;;;14.80;99.90;;;;;;5093271;28;20224;-83
2024/04/05 10:56:36;;;;;;;8.70;2.57;;;14.60;99.90;;;;;;5105310;28;20220;-84
2024/04/05 10:59:56;;;;;;;7.27;2.17;;;14.60;99.90;;;;;;5110557;28;20198;-83
2024/04/05 11:02:58;;;;;;;5.17;2.07;;;14.60;99.90;;;;;;5031154;28;20594;-84
2024/04/05 11:06:08;;;;;;;8.07;2.37;;;14.60;99.90;;;;;;5037691;28;20190;-83
2024/04/05 11:08:58;;;;;;;7.53;2.87;;;14.50;99.90;;;;;;5043729;28;20293;-83
2024/04/05 11:11:39;;;;;;;6.23;2.40;;;14.50;99.90;;;;;;5055788;28;20203;-83
2024/04/05 11:31:48;;;;;;;7.53;2.40;;;14.30;99.90;;;;;;5080340;28;20661;-83
2024/04/05 11:34:38;;;;;;;4.17;2.47;;;14.40;99.90;;;;;;5109246;28;20204;-83
2024/04/05 11:37:11;;;;;;;7.70;2.43;;;14.40;99.90;;;;;;5036725;28;20226;-83
2024/04/05 11:39:49;;;;;;;5.37;2.40;;;14.30;99.90;;;;;;5098213;28;20227;-83
2024/04/05 11:42:19;;;;;;;8.97;2.40;;;14.30;99.90;;;;;;5100450;28;20224;-83
2024/04/05 11:44:55;;;;;;;7.30;2.43;;;14.40;99.90;;;;;;5100978;28;20271;-83
2024/04/05 11:47:23;;;;;;;6.57;2.83;;;14.40;99.90;;;;;;5107171;28;20219;-83
2024/04/05 11:53:12;;;;;;;8.20;2.63;;;14.40;99.90;;;;;;5102503;28;20208;-83
2024/04/05 11:53:38;;;;;;;6.60;2.30;;;14.40;99.90;;;;;;5010729;28;20199;-83
2024/04/05 11:56:42;;;;;;;6.40;2.67;;;14.50;99.90;;;;;;5109914;28;20232;-83
2024/04/05 12:12:52;;;;;;;6.90;2.37;;;14.70;99.90;;;;;;5096262;28;20175;-84
2024/04/05 12:16:00;;;;;;;3.67;2.50;;;14.70;99.90;;;;;;5099870;28;20312;-84
2024/04/05 12:25:25;;;;;;;6.97;2.33;;;14.80;99.90;;;;;;5035460;28;20251;-83
2024/04/05 12:28:04;;;;;;;7.87;2.53;;;14.80;99.90;;;;;;5059790;28;20225;-85
2024/04/05 12:30:49;;;;;;;7.53;2.90;;;14.80;99.90;;;;;;5043239;28;20221;-86
2024/04/05 12:33:15;;;;;;;4.73;2.40;;;14.80;99.90;;;;;;5058503;28;20198;-84
2024/04/05 12:35:59;;;;;;;4.33;2.47;;;14.80;99.90;;;;;;5060285;28;20335;-83
2024/04/05 12:38:29;;;;;;;4.93;2.53;;;14.80;99.90;;;;;;5071346;28;20686;-83
2024/04/05 12:40:57;;;;;;;7.37;2.50;;;14.80;99.90;;;;;;5097381;28;20228;-84
2024/04/05 12:43:23;;;;;;;8.67;2.80;;;14.80;99.90;;;;;;5105309;28;20245;-84
2024/04/05 12:46:02;;;;;;;5.87;2.57;;;14.80;99.90;;;;;;5101255;28;20196;-84
2024/04/05 12:48:29;;;;;;;4.33;2.23;;;14.80;99.90;;;;;;5110697;28;20229;-83
2024/04/05 12:51:01;;;;;;;5.67;2.67;;;14.80;99.90;;;;;;5112703;28;20651;-83
2024/04/05 12:53:28;;;;;;;3.07;2.20;;;14.90;99.90;;;;;;5068217;28;23634;-84
2024/04/05 12:55:57;;;;;;;5.10;2.27;;;14.90;99.90;;;;;;5062626;28;20220;-84
2024/04/05 12:58:28;;;;;;;2.77;2.33;;;14.90;99.90;;;;;;5061429;28;20256;-84
2024/04/05 13:00:58;;;;;;;5.33;2.20;;;14.90;99.90;;;;;;5054569;28;20207;-85
2024/04/05 13:03:24;;;;;;;8.47;2.43;;;14.90;99.90;;;;;;5062138;28;20293;-85
2024/04/05 13:26:36;;;;;;;8.07;2.57;;;15.10;99.90;;;;;;4904786;29;20195;-85
2024/04/05 19:49:05;;;;;;;6.80;2.13;;;14.60;99.90;;;;;;5017869;23;20222;-85
2024/04/05 19:51:31;;;;;;;6.90;2.23;;;14.60;99.90;;;;;;5015527;28;20637;-84
2024/04/05 19:53:58;;;;;;;8.63;1.67;;;14.60;99.90;;;;;;5045552;28;20302;-85
2024/04/05 19:56:24;;;;;;;6.53;1.80;;;14.60;99.90;;;;;;5032584;28;20309;-86
2024/04/05 19:58:52;;;;;;;5.87;2.00;;;14.50;99.90;;;;;;5031198;28;20298;-85
2024/04/05 20:01:18;;;;;;;8.10;2.30;;;14.50;99.90;;;;;;5037497;28;20555;-86
2024/04/05 20:03:44;;;;;;;9.57;1.70;;;14.50;99.90;;;;;;5030632;28;20210;-87
2024/04/05 20:06:12;;;;;;;6.20;1.77;;;14.50;99.90;;;;;;5037583;28;20199;-86
2024/04/05 20:08:38;;;;;;;6.90;1.87;;;14.50;99.90;;;;;;5042756;28;20202;-86
2024/04/05 20:11:04;;;;;;;5.47;1.93;;;14.40;99.90;;;;;;5031758;28;20261;-87
2024/04/05 20:13:33;;;;;;;5.73;1.60;;;14.40;99.90;;;;;;5023899;28;20652;-86
2024/04/05 20:15:59;;;;;;;7.60;1.67;;;14.40;99.90;;;;;;5032809;28;20710;-86
2024/04/05 20:18:25;;;;;;;6.83;1.77;;;14.40;99.90;;;;;;5029384;28;20202;-87
2024/04/05 20:20:51;;;;;;;6.87;1.63;;;14.40;99.90;;;;;;5032095;28;20293;-86
2024/04/05 20:23:20;;;;;;;10.63;2.30;;;14.30;99.90;;;;;;5024900;28;20766;-86
2024/04/05 20:25:45;;;;;;;5.73;1.97;;;14.30;99.90;;;;;;5040744;28;20640;-86
2024/04/05 20:32:25;;;;;;;5.23;1.60;;;14.30;99.90;;;;;;5034817;28;20298;-86
2024/04/05 20:33:52;;;;;;;8.97;1.77;;;14.30;99.90;;;;;;4999452;28;20222;-86
2024/04/05 20:36:19;;;;;;;7.30;2.10;;;14.30;99.90;;;;;;5027084;28;20226;-88
2024/04/05 20:38:48;;;;;;;8.00;1.77;;;14.30;99.90;;;;;;5034732;28;20293;-87
2024/04/05 20:41:14;;;;;;;6.20;1.73;;;14.30;99.90;;;;;;5044636;28;20213;-87
2024/04/05 20:43:41;;;;;;;8.23;2.13;;;14.30;99.90;;;;;;5023300;28;20226;-88
2024/04/05 20:46:07;;;;;;;4.03;1.30;;;14.30;99.90;;;;;;5037255;28;20199;-87
2024/04/05 20:48:34;;;;;;;6.50;1.77;;;14.30;99.90;;;;;;5026529;28;20611;-87
2024/04/05 20:51:00;;;;;;;5.67;1.87;;;14.30;99.90;;;;;;5030284;28;20297;-88
2024/04/05 20:53:27;;;;;;;4.20;1.90;;;14.30;99.90;;;;;;5027754;28;20218;-88
2024/04/05 20:55:55;;;;;;;8.60;1.80;;;14.30;99.90;;;;;;5028975;28;20198;-87
2024/04/05 20:58:22;;;;;;;7.67;1.77;;;14.30;99.90;;;;;;5028352;28;20216;-88
2024/04/05 21:00:49;;;;;;;4.67;1.40;;;14.30;99.90;;;;;;5025349;28;20207;-87
2024/04/05 21:03:15;;;;;;;7.37;1.90;;;14.30;99.90;;;;;;5038915;28;20286;-88
2024/04/05 21:05:45;;;;;;;5.90;1.93;;;14.30;99.90;;;;;;5038121;28;20285;-87
2024/04/05 21:08:11;;;;;;;5.73;1.67;;;14.30;99.90;;;;;;5035423;28;20279;-88
2024/04/05 21:10:37;;;;;;;7.27;1.93;;;14.30;99.90;;;;;;5039116;28;20635;-88
2024/04/05 21:13:05;;;;;;;5.90;1.90;;;14.40;99.90;;;;;;5034286;28;20246;-87
2024/04/05 21:15:34;;;;;;;6.53;1.60;;;14.30;99.90;;;;;;5038352;28;20212;-88
2024/04/05 21:18:03;;;;;;;7.37;1.90;;;14.30;99.90;;;;;;5028180;28;20242;-88
2024/04/05 21:20:31;;;;;;;10.53;1.83;;;14.30;99.90;;;;;;5034387;28;20278;-88
2024/04/05 21:22:56;;;;;;;7.43;1.50;;;14.30;99.90;;;;;;5026140;28;20305;-87
2024/04/05 21:25:23;;;;;;;5.47;1.87;;;14.30;99.90;;;;;;5033400;28;20195;-87
2024/04/05 21:27:49;;;;;;;4.70;1.70;;;14.30;99.90;;;;;;5041146;28;20277;-88
2024/04/05 21:30:17;;;;;;;4.43;1.53;;;14.20;99.90;;;;;;5029899;28;20293;-88
2024/04/05 21:32:43;;;;;;;4.57;1.47;;;14.20;99.90;;;;;;5036837;28;20210;-87
2024/04/05 21:35:10;;;;;;;4.60;1.80;;;14.20;99.90;;;;;;5034286;28;20505;-88
2024/04/05 21:37:39;;;;;;;8.97;1.80;;;14.20;99.90;;;;;;5029236;28;20225;-88
2024/04/05 21:40:07;;;;;;;3.50;1.50;;;14.20;99.90;;;;;;5040183;28;20226;-87
2024/04/05 21:42:33;;;;;;;7.33;2.03;;;14.20;99.90;;;;;;5036336;28;20230;-87
2024/04/05 21:45:00;;;;;;;5.23;1.67;;;14.10;99.90;;;;;;5035435;28;20569;-88
2024/04/05 21:47:27;;;;;;;5.40;2.10;;;14.20;99.90;;;;;;5047496;28;20284;-89
2024/04/05 21:49:54;;;;;;;5.30;1.90;;;14.10;99.90;;;;;;5034315;28;20230;-87
2024/04/05 21:52:20;;;;;;;8.23;1.87;;;14.10;99.90;;;;;;5036244;28;20225;-87
2024/04/05 21:54:47;;;;;;;5.43;1.47;;;14.10;99.90;;;;;;5033825;28;20205;-88
2024/04/05 21:57:13;;;;;;;7.80;1.60;;;14.10;99.90;;;;;;5025007;28;20762;-88
2024/04/05 21:59:43;;;;;;;10.27;2.00;;;14.00;99.90;;;;;;5034101;28;20437;-87
2024/04/05 22:02:09;;;;;;;6.90;2.33;;;14.00;99.90;;;;;;5041158;28;20587;-88
2024/04/05 22:04:39;;;;;;;10.37;1.60;;;14.00;99.90;;;;;;5035128;28;20347;-89
2024/04/05 22:07:06;;;;;;;4.93;1.80;;;14.00;99.90;;;;;;5028088;28;20199;-87
2024/04/05 22:09:33;;;;;;;8.77;2.43;;;14.00;99.90;;;;;;5032404;28;20195;-87
2024/04/05 22:11:59;;;;;;;5.93;2.03;;;13.90;99.90;;;;;;5027768;28;20629;-88
2024/04/05 22:14:26;;;;;;;4.40;1.83;;;13.90;99.90;;;;;;5040894;28;20277;-87
2024/04/05 22:16:52;;;;;;;9.10;2.33;;;13.80;99.90;;;;;;5032168;28;20211;-88
2024/04/05 22:19:18;;;;;;;11.53;2.03;;;13.80;99.90;;;;;;5032356;28;20209;-88
2024/04/05 22:21:46;;;;;;;6.97;1.80;;;13.70;99.90;;;;;;5036012;28;20305;-88
2024/04/05 22:24:13;;;;;;;7.37;2.00;;;13.70;99.90;;;;;;5031978;28;20203;-87
2024/04/05 22:26:39;;;;;;;5.80;2.10;;;13.70;99.90;;;;;;5030413;28;20234;-88
2024/04/05 22:29:06;;;;;;;5.10;2.00;;;13.70;99.90;;;;;;5032914;28;20204;-88
2024/04/05 22:31:32;;;;;;;3.57;1.50;;;13.60;99.90;;;;;;5051376;28;20233;-88
2024/04/05 22:33:59;;;;;;;5.83;1.73;;;13.60;99.90;;;;;;5038053;28;20252;-88
2024/04/05 22:36:24;;;;;;;7.13;2.17;;;13.60;99.90;;;;;;5031074;28;20322;-88
2024/04/05 22:38:58;;;;;;;7.60;2.20;;;13.60;99.90;;;;;;5031511;28;20738;-88
2024/04/05 22:41:26;;;;;;;7.53;2.33;;;13.60;99.90;;;;;;5031223;28;20281;-88
2024/04/05 22:43:53;;;;;;;5.67;1.77;;;13.50;99.90;;;;;;5040701;28;20206;-88
2024/04/05 22:46:19;;;;;;;6.23;2.00;;;13.50;99.90;;;;;;5035971;28;20298;-88
2024/04/05 22:48:46;;;;;;;3.60;1.67;;;13.40;99.90;;;;;;5042658;28;20674;-88
2024/04/05 22:51:12;;;;;;;8.90;2.33;;;13.30;99.90;;;;;;5041126;28;20205;-87
2024/04/05 22:53:39;;;;;;;9.27;2.53;;;13.40;99.90;;;;;;5047164;28;20230;-88
2024/04/05 22:56:07;;;;;;;6.40;2.00;;;13.40;99.90;;;;;;5029293;28;20741;-87
2024/04/05 22:58:37;;;;;;;6.33;2.00;;;13.30;99.90;;;;;;5027825;28;20222;-87
2024/04/05 23:01:04;;;;;;;6.37;2.33;;;13.30;99.90;;;;;;5035775;28;20273;-88
2024/04/05 23:03:30;;;;;;;6.53;2.10;;;13.20;99.90;;;;;;5024718;28;20276;-88
2024/04/05 23:05:56;;;;;;;7.03;2.40;;;13.20;99.90;;;;;;5028991;28;20401;-88
2024/04/05 23:08:23;;;;;;;5.30;2.10;;;13.20;99.90;;;;;;5029732;28;20297;-88
2024/04/05 23:10:49;;;;;;;7.80;2.10;;;13.20;99.90;;;;;;5029228;28;20198;-88
2024/04/05 23:13:18;;;;;;;6.07;2.20;;;13.20;99.90;;;;;;5035840;28;20228;-87
2024/04/05 23:15:44;;;;;;;4.77;2.30;;;13.20;99.90;;;;;;5033277;28;20244;-88
2024/04/05 23:18:10;;;;;;;11.23;2.50;;;13.20;99.90;;;;;;5027454;28;20623;-88
2024/04/05 23:20:36;;;;;;;7.97;2.70;;;13.20;99.90;;;;;;5042194;28;20226;-88
2024/04/05 23:23:04;;;;;;;5.43;2.00;;;13.20;99.90;;;;;;5039046;28;20248;-88
2024/04/05 23:25:29;;;;;;;6.47;2.40;;;13.20;99.90;;;;;;5030894;28;20310;-88
2024/04/05 23:27:56;;;;;;;10.93;2.57;;;13.20;99.90;;;;;;5038486;28;20239;-88
2024/04/05 23:30:24;;;;;;;8.10;2.50;;;13.10;99.90;;;;;;5031274;28;20207;-88
2024/04/05 23:32:51;;;;;;;6.37;2.00;;;13.10;99.90;;;;;;5037156;28;20523;-88
2024/04/05 23:35:18;;;;;;;7.53;2.40;;;13.10;99.90;;;;;;5028812;28;20609;-88
2024/04/05 23:37:45;;;;;;;7.07;2.40;;;13.10;99.90;;;;;;5043288;28;20247;-88
2024/04/05 23:40:11;;;;;;;9.80;3.03;;;13.10;99.90;;;;;;5039682;28;20288;-88
2024/04/05 23:42:38;;;;;;;4.63;2.07;;;13.00;99.90;;;;;;5028188;28;20286;-88
2024/04/05 23:45:05;;;;;;;5.37;2.43;;;13.00;99.90;;;;;;5036226;28;20222;-88
2024/04/05 23:47:33;;;;;;;10.07;2.77;;;12.90;99.90;;;;;;5034523;28;20247;-88
2024/04/05 23:50:00;;;;;;;8.13;2.37;;;12.90;99.90;;;;;;5043184;28;20210;-87
2024/04/05 23:52:28;;;;;;;5.30;1.97;;;12.90;99.90;;;;;;5036184;28;20215;-88
2024/04/05 23:54:54;;;;;;;10.53;2.57;;;12.80;99.90;;;;;;5033400;28;20589;-87
2024/04/05 23:57:21;;;;;;;7.20;2.20;;;12.80;99.90;;;;;;5039830;28;20770;-87
2024/04/05 23:59:48;;;;;;;5.27;2.20;;;12.80;99.90;;;;;;5038053;28;20273;-88
